Time;durP1;ratioP1;P1;durP2;ratioP2;P2;SDS_P1;SDS_P2;PMS_P1;PMS_P2;Temp;Humidity;BMP_temperature;BMP_pressure;BME280_temperature;BME280_humidity;BME280_pressure;Samples;Min_cycle;Max_cycle;Signal;HPM_P1;HPM_P2
2022/08/31 00:03:55;;;;;;;10.95;7.30;;;;;;;-145.69;100.00;70960.66;5073731;28;20195;-75
2022/08/31 00:06:22;;;;;;;14.52;7.68;;;;;;;-145.69;100.00;70954.69;5073866;28;20710;-75
2022/08/31 00:08:48;;;;;;;10.02;7.03;;;;;;;-145.69;100.00;70964.66;5072714;28;20202;-75
2022/08/31 00:11:15;;;;;;;10.57;7.18;;;;;;;-145.69;100.00;70970.63;5073398;28;20199;-76
2022/08/31 00:13:43;;;;;;;12.30;7.50;;;;;;;-145.69;100.00;70976.59;5073808;28;20199;-75
2022/08/31 00:16:13;;;;;;;12.15;7.68;;;;;;;-145.69;100.00;70984.53;5073526;28;20206;-75
2022/08/31 00:18:40;;;;;;;11.48;6.63;;;;;;;-145.69;100.00;70996.47;5073537;28;20195;-76
2022/08/31 00:21:06;;;;;;;9.43;6.07;;;;;;;-145.69;100.00;70994.50;5073420;28;20210;-76
2022/08/31 00:23:33;;;;;;;9.15;6.38;;;;;;;-145.69;100.00;71008.41;5073425;28;20198;-76
2022/08/31 00:25:59;;;;;;;10.77;7.10;;;;;;;-145.69;100.00;71024.34;5073101;28;20256;-75
2022/08/31 00:28:26;;;;;;;12.02;7.43;;;;;;;-145.69;100.00;71038.25;5073237;28;20248;-76
2022/08/31 00:30:52;;;;;;;12.68;6.43;;;;;;;-145.69;100.00;71038.25;5073076;28;20681;-76
2022/08/31 00:33:20;;;;;;;13.85;7.20;;;;;;;-145.69;100.00;71046.22;5073093;28;20195;-76
2022/08/31 00:35:47;;;;;;;9.73;6.50;;;;;;;-145.69;100.00;71056.16;5073214;28;20632;-75
2022/08/31 00:38:13;;;;;;;8.60;5.90;;;;;;;-145.69;100.00;71060.16;5073213;28;20252;-74
2022/08/31 00:40:44;;;;;;;7.07;5.35;;;;;;;-145.69;100.00;71060.16;5072995;28;20202;-75
2022/08/31 00:43:10;;;;;;;8.15;5.80;;;;;;;-145.69;100.00;71074.09;5073236;28;20206;-75
2022/08/31 00:45:37;;;;;;;8.35;5.28;;;;;;;-145.69;100.00;71076.06;5073092;28;20198;-75
2022/08/31 00:48:04;;;;;;;8.38;5.47;;;;;;;-145.69;100.00;71084.03;5071050;28;20230;-75
2022/08/31 00:50:31;;;;;;;7.68;5.35;;;;;;;-145.69;100.00;71095.97;5053113;28;20231;-75
2022/08/31 00:53:00;;;;;;;6.80;5.00;;;;;;;-145.69;100.00;71093.97;5052896;28;20203;-77
2022/08/31 00:55:32;;;;;;;8.10;5.45;;;;;;;-145.69;100.00;71101.94;5052976;28;20214;-75
2022/08/31 00:58:02;;;;;;;10.20;5.45;;;;;;;-145.69;100.00;71115.88;5053081;28;20199;-74
2022/08/31 01:00:29;;;;;;;10.90;6.13;;;;;;;-145.69;100.00;71127.81;5052951;28;20287;-76
2022/08/31 01:02:57;;;;;;;8.00;5.70;;;;;;;-145.69;100.00;71127.81;5053212;28;20199;-76
2022/08/31 01:05:24;;;;;;;9.85;6.68;;;;;;;-145.69;100.00;71131.78;5052793;28;20261;-75
2022/08/31 01:07:53;;;;;;;11.60;6.47;;;;;;;-145.69;100.00;71135.75;5052608;28;20227;-75
2022/08/31 01:10:23;;;;;;;9.55;6.10;;;;;;;-145.69;100.00;71143.72;5051734;28;20207;-77
2022/08/31 01:12:53;;;;;;;10.93;6.80;;;;;;;-145.69;100.00;71145.72;5052213;28;20207;-77
2022/08/31 01:15:21;;;;;;;10.88;7.00;;;;;;;-145.69;100.00;71157.66;5052895;28;20211;-77
2022/08/31 01:17:50;;;;;;;10.98;6.75;;;;;;;-145.69;100.00;71163.63;5052773;28;20209;-75
2022/08/31 01:20:23;;;;;;;10.65;6.53;;;;;;;-145.69;100.00;71173.56;5054064;28;20670;-77
2022/08/31 01:23:04;;;;;;;10.55;6.50;;;;;;;-145.69;100.00;71187.50;5057196;28;20199;-76
2022/08/31 01:25:31;;;;;;;9.88;6.72;;;;;;;-145.69;100.00;71195.47;5056162;28;20436;-76
2022/08/31 01:27:59;;;;;;;10.38;6.30;;;;;;;-145.69;100.00;71203.41;5056536;28;20296;-76
2022/08/31 01:30:26;;;;;;;9.43;6.53;;;;;;;-145.69;100.00;71197.44;5056541;28;20203;-76
2022/08/31 01:32:52;;;;;;;9.68;6.13;;;;;;;-145.69;100.00;71211.38;5069472;28;20217;-76
2022/08/31 01:35:19;;;;;;;8.93;6.60;;;;;;;-145.69;100.00;71205.41;5076655;28;20199;-76
2022/08/31 01:37:45;;;;;;;8.80;6.20;;;;;;;-145.69;100.00;71223.31;5076624;28;20296;-76
2022/08/31 01:40:13;;;;;;;10.48;6.18;;;;;;;-145.69;100.00;71225.31;5076466;28;20202;-78
2022/08/31 01:42:43;;;;;;;11.95;6.43;;;;;;;-145.69;100.00;71237.25;5076475;28;20195;-76
2022/08/31 01:45:11;;;;;;;8.50;6.07;;;;;;;-145.69;100.00;71239.22;5076226;28;20653;-76
2022/08/31 01:47:38;;;;;;;11.85;5.78;;;;;;;-145.69;100.00;71255.16;5076435;28;20612;-76
2022/08/31 01:50:06;;;;;;;8.30;6.13;;;;;;;-145.69;100.00;71255.16;5076103;28;20234;-76
2022/08/31 01:52:32;;;;;;;10.90;6.03;;;;;;;-145.69;100.00;71251.16;5076668;28;20202;-76
2022/08/31 01:54:59;;;;;;;11.30;5.80;;;;;;;-145.69;100.00;71257.13;5075948;28;20256;-76
2022/08/31 01:57:27;;;;;;;10.02;5.22;;;;;;;-145.69;100.00;71261.13;5076062;28;20294;-76
2022/08/31 01:59:53;;;;;;;12.57;5.82;;;;;;;-145.69;100.00;71261.13;5076242;28;20209;-75
2022/08/31 02:02:20;;;;;;;12.50;6.00;;;;;;;-145.69;100.00;71263.09;5076098;28;20198;-76
2022/08/31 02:04:47;;;;;;;8.95;5.97;;;;;;;-145.69;100.00;71267.09;5075911;28;20206;-75
2022/08/31 02:07:13;;;;;;;9.75;6.20;;;;;;;-145.69;100.00;71265.09;5075949;28;20287;-75
2022/08/31 02:09:40;;;;;;;14.40;5.80;;;;;;;-145.69;100.00;71267.09;5075987;28;20203;-76
2022/08/31 02:12:06;;;;;;;15.35;6.25;;;;;;;-145.69;100.00;71261.13;5075768;28;20666;-75
2022/08/31 02:14:34;;;;;;;9.45;5.93;;;;;;;-145.69;100.00;71263.09;5075763;28;20195;-75
2022/08/31 02:17:01;;;;;;;12.93;6.03;;;;;;;-145.69;100.00;71271.06;5075719;28;20726;-77
2022/08/31 02:19:27;;;;;;;11.27;5.80;;;;;;;-145.69;100.00;71269.06;5075802;28;20202;-75
2022/08/31 02:21:53;;;;;;;17.23;6.22;;;;;;;-145.69;100.00;71275.03;5075733;28;20203;-75
2022/08/31 02:24:20;;;;;;;12.25;6.32;;;;;;;-145.69;100.00;71281.00;5075704;28;20374;-75
2022/08/31 02:26:46;;;;;;;9.18;5.95;;;;;;;-145.69;100.00;71285.00;5075481;28;20230;-77
2022/08/31 02:29:13;;;;;;;14.48;6.90;;;;;;;-145.69;100.00;71283.00;5075692;28;20207;-77
2022/08/31 02:31:40;;;;;;;12.00;6.75;;;;;;;-145.69;100.00;71283.00;5074348;28;20653;-77
2022/08/31 02:34:07;;;;;;;10.88;6.40;;;;;;;-145.69;100.00;71283.00;5075395;28;20195;-77
2022/08/31 02:36:33;;;;;;;16.50;6.28;;;;;;;-145.69;100.00;71286.97;5075432;28;20199;-76
2022/08/31 02:39:00;;;;;;;11.77;6.40;;;;;;;-145.69;100.00;71286.97;5075330;28;20199;-77
2022/08/31 02:41:26;;;;;;;10.57;6.78;;;;;;;-145.69;100.00;71288.97;5060121;28;20203;-75
2022/08/31 02:43:53;;;;;;;9.95;6.43;;;;;;;-145.69;100.00;71292.94;5055146;28;20203;-75
2022/08/31 02:46:19;;;;;;;11.10;7.15;;;;;;;-145.69;100.00;71292.94;5055153;28;20203;-75
2022/08/31 02:48:47;;;;;;;15.45;7.68;;;;;;;-145.69;100.00;71279.03;5054896;28;20721;-75
2022/08/31 02:51:13;;;;;;;10.80;7.10;;;;;;;-145.69;100.00;71279.03;5055155;28;20709;-76
2022/08/31 02:53:40;;;;;;;12.40;7.60;;;;;;;-145.69;100.00;71281.00;5055081;28;20199;-76
2022/08/31 02:56:07;;;;;;;12.30;6.75;;;;;;;-145.69;100.00;71277.03;5054970;28;20204;-75
2022/08/31 02:58:34;;;;;;;11.90;6.85;;;;;;;-145.69;100.00;71283.00;5055235;28;20203;-75
2022/08/31 03:01:01;;;;;;;12.65;7.22;;;;;;;-145.69;100.00;71279.03;5055057;28;20207;-76
2022/08/31 03:03:28;;;;;;;12.15;7.20;;;;;;;-145.69;100.00;71286.97;5054932;28;20654;-75
2022/08/31 03:05:55;;;;;;;15.77;7.60;;;;;;;-145.69;100.00;71285.00;5054697;28;20658;-75
2022/08/31 03:08:22;;;;;;;12.52;7.05;;;;;;;-145.69;100.00;71290.97;5054700;28;20227;-75
2022/08/31 03:10:48;;;;;;;12.00;7.50;;;;;;;-145.69;100.00;71285.00;5054972;28;20211;-76
2022/08/31 03:13:15;;;;;;;15.68;9.35;;;;;;;-145.69;100.00;71283.00;5055102;28;20207;-75
2022/08/31 03:15:42;;;;;;;13.60;7.43;;;;;;;-145.69;100.00;71290.97;5054727;28;20207;-75
2022/08/31 03:18:09;;;;;;;11.23;7.40;;;;;;;-145.69;100.00;71286.97;5061378;28;20232;-75
2022/08/31 03:20:36;;;;;;;10.77;7.75;;;;;;;-145.69;100.00;71283.00;5074577;28;20213;-75
2022/08/31 03:23:04;;;;;;;13.75;8.80;;;;;;;-145.69;100.00;71285.00;5074468;28;20225;-76
2022/08/31 03:25:31;;;;;;;13.30;7.35;;;;;;;-145.69;100.00;71286.97;5074546;28;20202;-75
2022/08/31 03:27:58;;;;;;;14.85;9.25;;;;;;;-145.69;100.00;71292.94;5074553;28;20226;-74
2022/08/31 03:30:24;;;;;;;15.93;8.50;;;;;;;-145.69;100.00;71298.94;5074344;28;20217;-74
2022/08/31 03:32:52;;;;;;;16.25;9.55;;;;;;;-145.69;100.00;71298.94;5074300;28;20211;-74
2022/08/31 03:35:20;;;;;;;17.58;10.38;;;;;;;-145.69;100.00;71302.91;5074245;28;20531;-76
2022/08/31 03:37:46;;;;;;;18.88;10.57;;;;;;;-145.69;100.00;71292.94;5074178;28;20218;-74
2022/08/31 03:40:14;;;;;;;19.42;10.65;;;;;;;-145.69;100.00;71285.00;5074266;28;20199;-74
2022/08/31 03:42:41;;;;;;;17.45;9.95;;;;;;;-145.69;100.00;71292.94;5074016;28;20207;-74
2022/08/31 03:45:09;;;;;;;20.15;11.43;;;;;;;-145.69;100.00;71298.94;5074181;28;20210;-74
2022/08/31 03:47:36;;;;;;;18.73;11.18;;;;;;;-145.69;100.00;71308.88;5073989;28;20762;-74
2022/08/31 03:50:04;;;;;;;18.65;10.98;;;;;;;-145.69;100.00;71316.84;5073666;28;20672;-74
2022/08/31 03:52:31;;;;;;;18.15;11.38;;;;;;;-145.69;100.00;71318.81;5074166;28;20195;-74
2022/08/31 03:54:57;;;;;;;24.55;14.13;;;;;;;-145.69;100.00;71322.81;5074010;28;20256;-74
2022/08/31 03:57:25;;;;;;;24.58;14.73;;;;;;;-145.69;100.00;71322.81;5073939;28;20207;-74
2022/08/31 03:59:53;;;;;;;29.25;16.80;;;;;;;-145.69;100.00;71326.78;5073819;28;20207;-74
2022/08/31 04:02:19;;;;;;;25.27;14.95;;;;;;;-145.69;100.00;71318.81;5073790;28;20313;-74
2022/08/31 04:04:49;;;;;;;23.83;12.73;;;;;;;-145.69;100.00;71330.75;5073610;28;20275;-74
2022/08/31 04:07:17;;;;;;;22.23;11.93;;;;;;;-145.69;100.00;71340.72;5073585;28;20223;-74
2022/08/31 04:09:43;;;;;;;20.02;12.10;;;;;;;-145.69;100.00;71330.75;5073710;28;20202;-73
2022/08/31 04:12:09;;;;;;;20.63;12.07;;;;;;;-145.69;100.00;71322.81;5073686;28;20206;-74
2022/08/31 04:14:37;;;;;;;20.42;11.98;;;;;;;-145.69;100.00;71322.81;5073594;28;20199;-74
2022/08/31 04:17:04;;;;;;;24.08;12.60;;;;;;;-145.69;100.00;71324.78;5073484;28;20203;-74
2022/08/31 04:19:30;;;;;;;21.80;12.35;;;;;;;-145.69;100.00;71326.78;5073554;28;20203;-74
2022/08/31 04:21:57;;;;;;;26.73;12.70;;;;;;;-145.69;100.00;71330.75;5073147;28;20561;-74
2022/08/31 04:24:23;;;;;;;21.13;11.60;;;;;;;-145.69;100.00;71322.81;5073423;28;20230;-74
2022/08/31 04:26:51;;;;;;;15.83;9.10;;;;;;;-145.69;100.00;71356.63;5072426;28;20427;-75
2022/08/31 04:29:18;;;;;;;11.20;5.78;;;;;;;-145.69;100.00;71372.53;5073267;28;20238;-74
2022/08/31 04:31:46;;;;;;;12.65;6.72;;;;;;;-145.69;100.00;71364.59;5073223;28;20206;-76
2022/08/31 04:34:13;;;;;;;12.10;6.45;;;;;;;-145.69;100.00;71376.53;5072995;28;20618;-75
2022/08/31 04:36:40;;;;;;;16.00;7.50;;;;;;;-145.69;100.00;71372.53;5073359;28;20199;-74
2022/08/31 04:39:07;;;;;;;12.05;7.65;;;;;;;-145.69;100.00;71376.53;5073227;28;20210;-74
2022/08/31 04:41:36;;;;;;;10.23;6.80;;;;;;;-145.69;100.00;71382.50;5073273;28;20206;-74
2022/08/31 04:44:04;;;;;;;14.00;7.75;;;;;;;-145.69;100.00;71396.44;5071037;28;20205;-75
2022/08/31 04:46:32;;;;;;;22.58;9.70;;;;;;;-145.69;100.00;71402.41;5053304;28;20203;-74
2022/08/31 04:48:59;;;;;;;16.80;10.20;;;;;;;-145.69;100.00;71398.41;5052878;28;20242;-75
2022/08/31 04:51:29;;;;;;;19.13;9.50;;;;;;;-145.69;100.00;71426.28;5053132;28;20204;-75
2022/08/31 04:53:57;;;;;;;16.40;10.43;;;;;;;-145.69;100.00;71432.25;5052698;28;20203;-75
2022/08/31 04:56:26;;;;;;;22.30;9.70;;;;;;;-145.69;100.00;71440.19;5052484;28;20222;-75
2022/08/31 04:58:56;;;;;;;12.85;8.25;;;;;;;-145.69;100.00;71450.16;5052840;28;20264;-75
2022/08/31 05:01:26;;;;;;;13.90;7.90;;;;;;;-145.69;100.00;71446.16;5052816;28;20206;-75
2022/08/31 05:03:53;;;;;;;14.45;8.35;;;;;;;-145.69;100.00;71446.16;5052942;28;20201;-74
2022/08/31 05:06:23;;;;;;;18.30;8.60;;;;;;;-145.69;100.00;71442.19;5052876;28;20208;-74
2022/08/31 05:08:53;;;;;;;14.57;6.90;;;;;;;-145.69;100.00;71454.13;5052737;28;20253;-74
2022/08/31 05:11:20;;;;;;;14.40;7.07;;;;;;;-145.69;100.00;71450.16;5052627;28;20290;-75
2022/08/31 05:13:47;;;;;;;15.95;7.63;;;;;;;-145.69;100.00;71452.16;5052923;28;20547;-74
2022/08/31 05:16:14;;;;;;;9.10;4.65;;;;;;;-145.69;100.00;71450.16;5052824;28;20597;-74
2022/08/31 05:18:43;;;;;;;9.07;4.75;;;;;;;-145.69;100.00;71454.13;5052640;28;20204;-74
2022/08/31 05:21:10;;;;;;;12.02;4.88;;;;;;;-145.69;100.00;71458.09;5052844;28;20206;-74
2022/08/31 05:23:39;;;;;;;9.50;5.75;;;;;;;-145.69;100.00;71450.16;5052719;28;20214;-74
2022/08/31 05:26:06;;;;;;;12.73;5.75;;;;;;;-145.69;100.00;71448.16;5052845;28;20206;-74
2022/08/31 05:28:33;;;;;;;14.43;6.55;;;;;;;-145.69;100.00;71448.16;5052437;28;20223;-74
2022/08/31 05:30:59;;;;;;;14.93;6.60;;;;;;;-145.69;100.00;71444.19;5052396;28;20289;-74
2022/08/31 05:33:26;;;;;;;11.88;6.57;;;;;;;-145.69;100.00;71446.16;5059970;28;20195;-74
2022/08/31 05:35:55;;;;;;;10.82;5.80;;;;;;;-145.69;100.00;71442.19;5072584;28;20203;-74
2022/08/31 05:38:22;;;;;;;11.20;6.95;;;;;;;-145.69;100.00;71446.16;5071611;28;20926;-74
2022/08/31 05:40:53;;;;;;;8.77;5.82;;;;;;;-145.69;100.00;71446.16;5072690;28;20285;-74
2022/08/31 05:43:20;;;;;;;12.10;6.55;;;;;;;-145.69;100.00;71442.19;5072519;28;20680;-74
2022/08/31 05:45:47;;;;;;;10.20;6.18;;;;;;;-145.69;100.00;71434.22;5072364;28;20649;-74
2022/08/31 05:48:13;;;;;;;12.23;6.95;;;;;;;-145.69;100.00;71430.25;5072290;28;20227;-74
2022/08/31 05:50:40;;;;;;;10.45;6.95;;;;;;;-145.69;100.00;71428.25;5072295;28;20234;-74
2022/08/31 05:53:06;;;;;;;12.38;7.80;;;;;;;-145.69;100.00;71430.25;5072293;28;20198;-74
2022/08/31 05:55:33;;;;;;;11.80;7.13;;;;;;;-145.69;100.00;71434.22;5072556;28;20199;-73
2022/08/31 05:58:01;;;;;;;15.48;8.32;;;;;;;-145.69;100.00;71434.22;5072476;28;20199;-74
2022/08/31 06:00:29;;;;;;;15.13;8.25;;;;;;;-145.69;100.00;71434.22;5072509;28;20203;-74
2022/08/31 06:02:56;;;;;;;15.15;8.82;;;;;;;-145.69;100.00;71434.22;5072397;28;20198;-74
2022/08/31 06:05:23;;;;;;;15.07;8.50;;;;;;;-145.69;100.00;71434.22;5072129;28;20206;-74
2022/08/31 06:07:49;;;;;;;17.33;9.60;;;;;;;-145.69;100.00;71434.22;5076088;28;20206;-74
2022/08/31 06:10:17;;;;;;;14.98;9.65;;;;;;;-145.69;100.00;71438.22;5076049;28;20205;-74
2022/08/31 06:12:46;;;;;;;12.68;8.48;;;;;;;-145.69;100.00;71448.16;5076040;28;20202;-75
2022/08/31 06:15:14;;;;;;;12.30;7.30;;;;;;;-145.69;100.00;71438.22;5075605;28;20608;-74
2022/08/31 06:17:41;;;;;;;13.52;7.75;;;;;;;-145.69;100.00;71440.19;5075869;28;20225;-74
2022/08/31 06:20:09;;;;;;;11.77;7.75;;;;;;;-145.69;100.00;71430.25;5075703;28;20199;-74
2022/08/31 06:22:41;;;;;;;12.80;7.45;;;;;;;-145.69;100.00;71426.28;5075877;28;20259;-74
2022/08/31 06:25:09;;;;;;;12.48;6.82;;;;;;;-145.69;100.00;71430.25;5075796;28;20201;-74
2022/08/31 06:27:37;;;;;;;10.30;6.50;;;;;;;-145.69;100.00;71434.22;5075706;28;20253;-74
2022/08/31 06:30:06;;;;;;;9.32;6.43;;;;;;;-145.69;100.00;71434.22;5075485;28;20740;-73
2022/08/31 06:32:34;;;;;;;10.95;6.13;;;;;;;-145.69;100.00;71436.22;5075279;28;20654;-74
2022/08/31 06:35:01;;;;;;;9.57;5.82;;;;;;;-145.69;100.00;71442.19;5076850;28;20199;-74
2022/08/31 06:37:27;;;;;;;9.63;5.63;;;;;;;-145.69;100.00;71438.22;5075691;28;20202;-74
2022/08/31 06:39:54;;;;;;;8.07;5.65;;;;;;;-145.69;100.00;71428.25;5070426;28;20200;-74
2022/08/31 06:42:20;;;;;;;10.52;7.25;;;;;;;-145.69;100.00;71426.28;5054405;28;20450;-75
2022/08/31 06:44:49;;;;;;;9.80;6.25;;;;;;;-145.69;100.00;71426.28;5055203;28;20658;-75
2022/08/31 06:47:15;;;;;;;9.57;5.80;;;;;;;-145.69;100.00;71418.31;5055170;28;20246;-75
2022/08/31 06:49:43;;;;;;;7.68;5.07;;;;;;;-145.69;100.00;71414.34;5054837;28;20717;-75
2022/08/31 06:52:09;;;;;;;10.70;5.65;;;;;;;-145.69;100.00;71408.38;5055285;28;20264;-75
2022/08/31 06:54:36;;;;;;;12.82;6.25;;;;;;;-145.69;100.00;71404.38;5054821;28;20567;-74
2022/08/31 06:57:02;;;;;;;14.25;6.05;;;;;;;-145.69;100.00;71398.41;5055079;28;20207;-74
2022/08/31 06:59:29;;;;;;;10.65;6.03;;;;;;;-145.69;100.00;71392.44;5054942;28;20207;-74
2022/08/31 07:01:55;;;;;;;15.73;7.28;;;;;;;-145.69;100.00;71386.47;5055079;28;20203;-74
2022/08/31 07:04:22;;;;;;;10.35;6.82;;;;;;;-145.69;100.00;71376.53;5055305;28;20238;-73
2022/08/31 07:06:49;;;;;;;10.98;7.40;;;;;;;-145.69;100.00;71370.56;5075103;28;20202;-73
2022/08/31 07:09:17;;;;;;;11.05;7.07;;;;;;;-145.69;100.00;71362.59;5074633;28;20701;-74
2022/08/31 07:11:45;;;;;;;11.85;6.95;;;;;;;-145.69;100.00;71358.63;5074717;28;20657;-74
2022/08/31 07:14:14;;;;;;;11.52;7.25;;;;;;;-145.69;100.00;71348.66;5074664;28;20199;-74
2022/08/31 07:16:42;;;;;;;11.65;7.45;;;;;;;-145.69;100.00;71350.66;5074931;28;20225;-74
2022/08/31 07:19:09;;;;;;;10.20;6.80;;;;;;;-145.69;100.00;71338.72;5074208;28;20248;-74
2022/08/31 07:21:40;;;;;;;9.73;6.30;;;;;;;-145.69;100.00;71342.69;5074522;28;20668;-74
2022/08/31 07:24:09;;;;;;;7.38;5.55;;;;;;;-145.69;100.00;71354.63;5074713;28;20218;-75
2022/08/31 07:26:39;;;;;;;9.55;5.97;;;;;;;-145.69;100.00;71340.72;5074532;28;20289;-73
2022/08/31 07:29:08;;;;;;;8.25;5.63;;;;;;;-145.69;100.00;71344.69;5073887;28;20317;-75
2022/08/31 07:31:41;;;;;;;7.60;5.32;;;;;;;-145.69;100.00;71354.63;5074312;28;20198;-74
2022/08/31 07:34:09;;;;;;;10.13;6.50;;;;;;;-145.69;100.00;71354.63;5074512;28;20232;-75
2022/08/31 07:42:08;;;;;;;11.23;6.63;;;;;;;-145.69;100.00;71354.63;5074264;28;20257;-74
2022/08/31 07:42:13;;;;;;;13.98;6.88;;;;;;;-145.69;100.00;71340.72;5074321;28;20202;-74
2022/08/31 07:44:41;;;;;;;14.02;6.63;;;;;;;-145.69;100.00;71354.63;5074273;28;20218;-74
2022/08/31 07:47:11;;;;;;;11.90;6.72;;;;;;;-145.69;100.00;71348.66;5074190;28;20290;-74
2022/08/31 07:49:38;;;;;;;10.73;7.28;;;;;;;-145.69;100.00;71318.81;5073906;28;20234;-74
2022/08/31 07:52:05;;;;;;;13.40;7.45;;;;;;;-145.69;100.00;71294.94;5074200;28;20565;-75
2022/08/31 07:54:33;;;;;;;13.50;7.95;;;;;;;-145.69;100.00;71275.03;5073193;28;20916;-74
2022/08/31 07:57:03;;;;;;;8.02;5.53;;;;;;;-145.69;100.00;71283.00;5074039;28;20202;-74
2022/08/31 07:59:31;;;;;;;7.50;5.10;;;;;;;-145.69;100.00;71290.97;5073755;28;20202;-74
2022/08/31 08:02:00;;;;;;;7.28;5.03;;;;;;;-145.69;100.00;71290.97;5073998;28;20229;-73
2022/08/31 08:04:27;;;;;;;8.50;5.25;;;;;;;-145.69;100.00;71302.91;5073277;28;20222;-74
2022/08/31 08:06:56;;;;;;;9.32;5.18;;;;;;;-145.69;100.00;71292.94;5073647;28;20195;-74
2022/08/31 08:09:22;;;;;;;8.00;5.30;;;;;;;-145.69;100.00;71257.13;5073384;28;20226;-74
2022/08/31 08:11:53;;;;;;;9.90;5.68;;;;;;;-145.69;100.00;71223.31;5073396;28;20704;-73
2022/08/31 08:14:20;;;;;;;11.00;5.43;;;;;;;-145.69;100.00;71239.22;5073613;28;20203;-74
2022/08/31 08:16:47;;;;;;;7.40;5.00;;;;;;;-145.69;100.00;71259.13;5073273;28;20256;-75
2022/08/31 08:19:16;;;;;;;7.15;4.70;;;;;;;-145.69;100.00;71267.09;5073634;28;20207;-75
2022/08/31 08:21:45;;;;;;;9.15;5.15;;;;;;;-145.69;100.00;71292.94;5073575;28;20202;-76
2022/08/31 08:24:13;;;;;;;6.55;4.75;;;;;;;-145.69;100.00;71312.84;5069248;28;20203;-74
2022/08/31 08:26:46;;;;;;;8.65;5.35;;;;;;;-145.69;100.00;71320.81;5063243;28;20214;-74
2022/08/31 08:29:14;;;;;;;10.00;6.13;;;;;;;-145.69;100.00;71346.69;5072310;28;20226;-75
2022/08/31 08:31:42;;;;;;;10.25;6.95;;;;;;;-145.69;100.00;71350.66;5073243;28;20558;-74
2022/08/31 08:34:09;;;;;;;12.57;6.95;;;;;;;-145.69;100.00;71382.50;5073277;28;20635;-74
2022/08/31 08:36:39;;;;;;;9.50;7.25;;;;;;;-145.69;100.00;71390.47;5072664;28;20201;-74
2022/08/31 08:39:08;;;;;;;10.35;6.95;;;;;;;-145.69;100.00;71388.47;5053473;28;20192;-74
2022/08/31 08:41:38;;;;;;;7.80;5.88;;;;;;;-145.69;100.00;71414.34;5052968;28;20203;-74
2022/08/31 08:44:08;;;;;;;11.73;6.25;;;;;;;-145.69;100.00;71406.38;5052944;28;20199;-73
2022/08/31 08:46:46;;;;;;;10.60;5.95;;;;;;;-145.69;100.00;71396.44;5052742;28;20681;-74
2022/08/31 08:49:18;;;;;;;8.60;5.63;;;;;;;-145.69;100.00;71398.41;5055146;28;20235;-74
2022/08/31 08:51:46;;;;;;;7.07;4.95;;;;;;;-145.69;100.00;71400.41;5052986;28;20200;-73
2022/08/31 08:54:24;;;;;;;8.85;4.38;;;;;;;-145.69;100.00;71406.38;5052782;28;20207;-74
2022/08/31 08:56:50;;;;;;;5.85;4.03;;;;;;;-145.69;100.00;71398.41;5053131;28;20257;-74
2022/08/31 08:59:18;;;;;;;6.18;4.07;;;;;;;-145.69;100.00;71400.41;5052755;28;20678;-73
2022/08/31 09:01:49;;;;;;;5.85;3.85;;;;;;;-145.69;100.00;71378.50;5052926;28;20196;-74
2022/08/31 09:04:31;;;;;;;6.45;3.70;;;;;;;-145.69;100.00;71364.59;5052801;28;20203;-74
2022/08/31 09:07:19;;;;;;;5.63;3.60;;;;;;;-145.69;100.00;71342.69;5071719;28;20338;-75
2022/08/31 09:09:56;;;;;;;4.20;3.40;;;;;;;-145.69;100.00;71308.88;5072636;28;20230;-75
2022/08/31 09:12:43;;;;;;;6.70;3.60;;;;;;;-145.69;100.00;71227.28;5072515;28;20675;-74
2022/08/31 09:15:35;;;;;;;4.10;2.97;;;;;;;-145.69;100.00;71191.47;5072542;28;20674;-76
2022/08/31 09:18:18;;;;;;;4.93;3.00;;;;;;;-145.69;100.00;71201.41;5072422;28;20630;-75
2022/08/31 09:21:01;;;;;;;6.40;3.55;;;;;;;-145.69;100.00;71147.69;5072746;28;20565;-74
2022/08/31 09:23:30;;;;;;;5.97;2.90;;;;;;;-145.69;100.00;71088.00;5072551;28;20206;-74
2022/08/31 09:25:57;;;;;;;3.42;2.40;;;;;;;-145.69;100.00;71040.25;5072653;28;20233;-74
2022/08/31 09:28:35;;;;;;;3.90;2.80;;;;;;;-145.69;100.00;71016.38;5072883;28;20195;-76
2022/08/31 09:31:02;;;;;;;4.15;2.63;;;;;;;-145.69;100.00;70972.59;5072552;28;20275;-75
2022/08/31 09:33:33;;;;;;;4.70;2.45;;;;;;;-145.69;100.00;70938.78;5072596;28;20203;-75
2022/08/31 09:36:16;;;;;;;3.65;2.45;;;;;;;-145.69;100.00;70928.84;5071842;28;20224;-75
2022/08/31 09:38:45;;;;;;;3.90;2.30;;;;;;;-145.69;100.00;70877.09;5072607;28;20249;-74
2022/08/31 09:41:31;;;;;;;7.65;3.08;;;;;;;-145.69;100.00;70841.28;5073689;28;20712;-75
2022/08/31 09:44:21;;;;;;;3.80;2.70;;;;;;;-145.69;100.00;70853.22;5076534;28;20207;-75
2022/08/31 09:46:49;;;;;;;5.25;3.40;;;;;;;-145.69;100.00;70920.88;5076556;28;20206;-75
2022/08/31 09:49:28;;;;;;;5.57;3.20;;;;;;;-145.69;100.00;70962.66;5076036;28;20269;-75
2022/08/31 09:52:17;;;;;;;5.40;3.78;;;;;;;-145.69;100.00;71006.44;5064546;28;20475;-75
2022/08/31 09:55:12;;;;;;;6.03;4.00;;;;;;;-145.69;100.00;70996.47;5056095;28;20207;-75
2022/08/31 09:57:53;;;;;;;5.65;3.58;;;;;;;-145.69;100.00;70996.47;5056097;28;20202;-75
2022/08/31 10:00:34;;;;;;;5.68;4.07;;;;;;;-145.69;100.00;71006.44;5056096;28;20207;-75
2022/08/31 10:03:08;;;;;;;6.53;3.92;;;;;;;-145.69;100.00;71004.44;5065478;28;20268;-74
2022/08/31 10:05:41;;;;;;;7.43;4.60;;;;;;;-145.69;100.00;70970.63;5074249;28;20615;-76
2022/08/31 10:08:15;;;;;;;6.30;4.68;;;;;;;-145.69;100.00;71002.44;5075866;28;20203;-76
2022/08/31 10:10:46;;;;;;;7.40;4.82;;;;;;;-145.69;100.00;71020.34;5075880;28;20229;-75
2022/08/31 10:13:16;;;;;;;9.55;4.65;;;;;;;-145.69;100.00;71012.41;5075978;28;20234;-76
2022/08/31 10:15:51;;;;;;;7.57;4.53;;;;;;;-145.69;100.00;70996.47;5075704;28;20256;-76
2022/08/31 10:18:25;;;;;;;5.72;4.15;;;;;;;-145.69;100.00;70966.63;5075625;28;20229;-76
2022/08/31 10:21:00;;;;;;;7.22;4.35;;;;;;;-145.69;100.00;70968.63;5075374;28;20210;-75
2022/08/31 10:23:34;;;;;;;8.00;4.38;;;;;;;-145.69;100.00;71016.38;5075744;28;20198;-75
2022/08/31 10:26:07;;;;;;;6.65;4.18;;;;;;;-145.69;100.00;71036.28;5075116;28;20198;-75
2022/08/31 10:28:40;;;;;;;9.40;4.97;;;;;;;-145.69;100.00;70982.56;5075728;28;20206;-75
2022/08/31 10:31:12;;;;;;;7.10;4.22;;;;;;;-145.69;100.00;70960.66;5075525;28;20226;-75
2022/08/31 10:36:35;;;;;;;11.60;5.00;;;;;;;-145.69;100.00;71068.13;5058295;28;20242;-74
2022/08/31 10:39:02;;;;;;;9.25;4.85;;;;;;;-145.69;100.00;71111.88;5055414;28;20321;-74
2022/08/31 10:41:33;;;;;;;7.88;5.25;;;;;;;-145.69;100.00;71119.84;5057273;28;20609;-75
2022/08/31 10:44:06;;;;;;;13.00;5.10;;;;;;;-145.69;100.00;71076.06;5055324;28;20235;-75
2022/08/31 10:46:34;;;;;;;6.78;4.93;;;;;;;-145.69;100.00;71078.06;5055353;28;20612;-75
2022/08/31 10:49:02;;;;;;;10.85;5.20;;;;;;;-145.69;100.00;71076.06;5054908;28;20235;-74
2022/08/31 10:51:39;;;;;;;7.78;4.68;;;;;;;-145.69;100.00;71040.25;5055135;28;20210;-74
2022/08/31 10:54:26;;;;;;;8.25;4.90;;;;;;;-145.69;100.00;71030.31;5054101;28;20286;-75
2022/08/31 10:57:05;;;;;;;8.50;4.90;;;;;;;-145.69;100.00;71012.41;5055045;28;20210;-74
2022/08/31 10:59:36;;;;;;;7.68;4.60;;;;;;;-145.69;100.00;71012.41;5055207;28;20225;-77
2022/08/31 11:02:28;;;;;;;8.90;5.55;;;;;;;-145.69;100.00;71040.25;5058661;28;20199;-75
2022/08/31 11:05:09;;;;;;;8.00;5.93;;;;;;;-145.69;100.00;70988.53;5053742;28;20462;-74
2022/08/31 11:07:47;;;;;;;12.82;5.78;;;;;;;-145.69;100.00;70938.78;5054618;28;20737;-75
2022/08/31 11:10:26;;;;;;;8.75;5.53;;;;;;;-145.69;100.00;70976.59;5054819;28;20234;-74
2022/08/31 11:12:57;;;;;;;8.48;5.45;;;;;;;-145.69;100.00;70928.84;5054701;28;20206;-74
2022/08/31 11:15:46;;;;;;;8.88;5.45;;;;;;;-145.69;100.00;70908.94;5054663;28;20203;-74
2022/08/31 11:18:39;;;;;;;13.07;5.85;;;;;;;-145.69;100.00;70843.28;5054813;28;20192;-74
2022/08/31 11:21:36;;;;;;;12.20;5.93;;;;;;;-145.69;100.00;70805.47;5054593;28;20203;-75
2022/08/31 11:24:27;;;;;;;8.52;5.05;;;;;;;-145.69;100.00;70749.78;5054548;28;20666;-76